• Join FlightAware (Why Join?)
  • Login
  • US Flag 
05:46AM EDT


 

Airport Tracker/Info


-or-


 

Live Flight TrackerFlight Track Log ✈ N724HS ✈ 11-Jun-2014 ✈ KFLL - KORL

Flight Track Log - Related Links

Times and Time Zones

All times are in EDT time to prevent confusion due to time zone crossing. See the N724HS flight status page for this flight to view local times or setup timezone preferences in your user account.

Time Position Orientation Groundspeed Altitude Reporting Facility
EDT Latitude Longitude Course Direction KTS MPH feet Rate Location/Type
02:05PM 26.0772 -80.1450 54° Northeast 108 124 400  Level Miami Center
02:06PM 26.1119 -80.0919 54° Northeast 192 221 1,700 1,020 Climbing Miami Center
02:07PM 26.1261 -80.0711 53° Northeast 175 201 2,400 1,740 Climbing Miami Center
02:07PM 26.1442 -80.0436 54° Northeast 183 211 3,500 1,620 Climbing Miami Center
02:08PM 26.1564 -80.0242 55° Northeast 181 208 4,100 1,260 Climbing Miami Center
02:08PM 26.1783 -80.0019 42° Northeast 193 222 4,800 840 Climbing Miami Center
02:09PM 26.2056 -80.0169 334° Northwest 201 231 5,000 180 Climbing Miami Center
02:09PM 26.2219 -80.0400 308° West 220 253 5,000  Level Miami Center
02:10PM 26.2439 -80.0708 308° West 225 259 5,000 420 Level Miami Center
02:10PM 26.2644 -80.0967 312° West 221 254 5,500 1,200 Climbing Miami Center
02:11PM 26.2836 -80.1183 315° West 197 227 6,300 1,800 Climbing Miami Center
02:11PM 26.2892 -80.1381 287° West 155 178 7,200 1,800 Climbing Miami Center
02:12PM 26.2992 -80.1675 291° West 157 181 8,200 1,320 Climbing Miami Center
02:13PM 26.3172 -80.2106 295° West 156 180 9,500 1,200 Climbing Miami Center
02:14PM 26.3406 -80.2561 300° West 157 181 10,800 780 Climbing Miami Center
02:15PM 26.3722 -80.3025 307° West 187 215 11,200 960 Climbing Miami Center
02:16PM 26.4050 -80.3425 312° West 170 196 12,800 1,260 Climbing Miami Center
02:17PM 26.4461 -80.3775 323° Northwest 170 196 13,800 480 Climbing Miami Center
02:18PM 26.4989 -80.4025 337° Northwest 210 242 13,900  Climbing Miami Center
02:19PM 26.5603 -80.4378 333° Northwest 227 261 13,900  Level Miami Center
02:20PM 26.6200 -80.4750 331° Northwest 242 278 13,900  Level Miami Center
02:21PM 26.6644 -80.5283 313° West 232 267 13,900  Level Miami Center
02:22PM 26.6744 -80.6011 279° West 235 270 13,900  Level Miami Center
02:23PM 26.6592 -80.6706 256° West 231 266 13,900  Level Miami Center
02:24PM 26.6431 -80.7400 255° West 232 267 13,900  Level Miami Center
02:25PM 26.6264 -80.8144 256° West 232 267 13,900  Level Miami Center
02:26PM 26.6169 -80.8889 262° West 232 267 13,900  Level Miami Center
02:27PM 26.6292 -80.9581 281° West 234 269 13,900  Level Miami Center
02:28PM 26.6875 -80.9919 333° Northwest 243 280 13,900  Level Miami Center
02:29PM 26.7500 -81.0314 331° Northwest 246 283 13,900  Level Miami Center
02:30PM 26.8128 -81.0686 332° Northwest 246 283 13,900  Level Miami Center
02:32PM 26.8778 -81.1086 331° Northwest 247 284 13,900  Level Miami Center
02:33PM 26.9381 -81.1450 332° Northwest 247 284 13,900  Level Miami Center
02:34PM 27.0025 -81.1850 331° Northwest 249 287 13,900  Level Miami Center
02:35PM 27.0625 -81.2214 332° Northwest 248 285 14,000  Climbing Miami Center
02:36PM 27.1250 -81.2600 331° Northwest 248 285 14,000  Level Miami Center
02:37PM 27.1892 -81.2994 331° Northwest 248 285 14,000  Level Miami Center
02:38PM 27.2522 -81.3378 332° Northwest 248 285 14,000 -420 Level Miami Center
02:39PM 27.3061 -81.3717 331° Northwest 249 287 13,200 -840 Descending Miami Center
02:40PM 27.3719 -81.4119 331° Northwest 265 305 12,300 -1,020 Descending Miami Center
02:41PM 27.4517 -81.4608 331° Northwest 272 313 11,100 -1,080 Descending Miami Center
02:42PM 27.5156 -81.5000 331° Northwest 267 307 10,100 -960 Descending Miami Center
02:43PM 27.5753 -81.5364 332° Northwest 247 284 9,200 -960 Descending Miami Center
02:44PM 27.6428 -81.5483 351° North 246 283 8,200 -600 Descending Miami Center
02:45PM 27.7069 -81.5508 358° North 237 273 8,000 -120 Descending Miami Center
02:46PM 27.7681 -81.5547 357° North 223 257 8,000 -240 Level Miami Center
02:47PM 27.8386 -81.5725 347° North 221 254 7,600 -780 Descending Miami Center
02:48PM 27.8997 -81.5944 342° North 226 260 6,500 -1,260 Descending Miami Center
02:49PM 27.9625 -81.6064 350° North 230 265 5,100 -1,320 Descending Miami Center
02:50PM 28.0264 -81.6108 356° North 230 265 3,800 -1,080 Descending Miami Center
02:51PM 28.0897 -81.6147 357° North 230 265 3,000 -420 Descending Miami Center
02:52PM 28.1008 -81.6564 287° West 176 203 3,000  Level Miami Center
02:53PM 28.0431 -81.6394 165° South 185 213 3,000  Level Miami Center
02:54PM 28.0725 -81.6014 49° Northeast 198 228 3,000  Level Miami Center
02:55PM 28.0992 -81.6347 312° West 179 206 3,000  Level Miami Center
02:56PM 28.0522 -81.6347 180° South 178 205 3,000  Level Miami Center
02:57PM 28.0414 -81.5903 105° East 201 231 3,000  Level Miami Center
02:58PM 28.0944 -81.5892 North 193 222 3,000  Level Miami Center
02:59PM 28.0850 -81.6247 253° West 183 211 3,000  Level Miami Center
03:00PM 28.0894 -81.5775 84° East 193 222 3,000 60 Level Miami Center
03:01PM 28.1333 -81.5833 353° North 189 217 3,100 60 Climbing Orlando TRACON
03:02PM 28.1667 -81.5833 360° North 193 222 3,100 -540 Level Orlando TRACON
03:03PM 28.2333 -81.5833 360° North 193 222 2,100 -540 Descending Orlando TRACON
03:04PM 28.2833 -81.5833 360° North 186 214 2,100  Level Orlando TRACON
03:05PM 28.3167 -81.5667 24° Northeast 189 217 2,100 -300 Level Orlando TRACON
03:06PM 28.3667 -81.5500 16° North 185 213 1,600 -300 Descending Orlando TRACON
03:07PM 28.4000 -81.5333 24° Northeast 143 165 1,600  Level Orlando TRACON
03:08PM 28.4500 -81.5167 16° North 194 223 1,600  Level Orlando TRACON
03:09PM 28.4833 -81.4833 41° Northeast 166 191 1,600 -120 Level Orlando TRACON
03:10PM 28.5000 -81.4333 69° East 136 157 1,400 -240 Descending Orlando TRACON
03:11PM 28.5167 -81.4000 60° Northeast 132 152 1,200 -420 Descending Orlando TRACON
03:12PM 28.5333 -81.3667 60° Northeast 127 146 600 -600 Descending Orlando TRACON